sensor_id;sensor_type;location;lat;lon;timestamp;P1;durP1;ratioP1;P2;durP2;ratioP2
44197;SDS011;30157;55.512;37.764;2022-08-01T00:00:29;7.43;;;5.80;;
44197;SDS011;30157;55.512;37.764;2022-08-01T00:02:55;8.10;;;5.47;;
44197;SDS011;30157;55.512;37.764;2022-08-01T00:05:20;8.75;;;6.10;;
44197;SDS011;30157;55.512;37.764;2022-08-01T00:07:46;9.32;;;6.00;;
44197;SDS011;30157;55.512;37.764;2022-08-01T00:10:13;9.50;;;5.57;;
44197;SDS011;30157;55.512;37.764;2022-08-01T00:12:41;8.77;;;6.05;;
44197;SDS011;30157;55.512;37.764;2022-08-01T00:15:08;9.23;;;5.60;;
44197;SDS011;30157;55.512;37.764;2022-08-01T00:17:35;8.60;;;6.13;;
44197;SDS011;30157;55.512;37.764;2022-08-01T00:20:02;10.15;;;6.05;;
44197;SDS011;30157;55.512;37.764;2022-08-01T00:22:30;7.55;;;6.00;;
44197;SDS011;30157;55.512;37.764;2022-08-01T00:24:56;8.20;;;6.20;;
44197;SDS011;30157;55.512;37.764;2022-08-01T00:27:22;9.68;;;5.97;;
44197;SDS011;30157;55.512;37.764;2022-08-01T00:29:48;8.13;;;5.50;;
44197;SDS011;30157;55.512;37.764;2022-08-01T00:32:14;8.90;;;5.85;;
44197;SDS011;30157;55.512;37.764;2022-08-01T00:34:39;7.80;;;5.38;;
44197;SDS011;30157;55.512;37.764;2022-08-01T00:37:05;11.88;;;6.20;;
44197;SDS011;30157;55.512;37.764;2022-08-01T00:39:31;8.68;;;6.18;;
44197;SDS011;30157;55.512;37.764;2022-08-01T00:41:58;11.15;;;6.85;;
44197;SDS011;30157;55.512;37.764;2022-08-01T00:44:25;10.77;;;7.25;;
44197;SDS011;30157;55.512;37.764;2022-08-01T00:46:51;10.90;;;7.03;;
44197;SDS011;30157;55.512;37.764;2022-08-01T00:49:17;10.60;;;6.35;;
44197;SDS011;30157;55.512;37.764;2022-08-01T00:51:45;10.52;;;6.65;;
44197;SDS011;30157;55.512;37.764;2022-08-01T00:54:11;10.90;;;6.10;;
44197;SDS011;30157;55.512;37.764;2022-08-01T00:56:44;11.32;;;6.15;;
44197;SDS011;30157;55.512;37.764;2022-08-01T00:59:11;10.93;;;6.55;;
44197;SDS011;30157;55.512;37.764;2022-08-01T01:01:37;9.45;;;6.22;;
44197;SDS011;30157;55.512;37.764;2022-08-01T01:04:03;12.32;;;6.85;;
44197;SDS011;30157;55.512;37.764;2022-08-01T01:15:06;11.18;;;6.55;;
44197;SDS011;30157;55.512;37.764;2022-08-01T01:17:40;10.32;;;6.43;;
44197;SDS011;30157;55.512;37.764;2022-08-01T01:20:12;9.77;;;6.47;;
44197;SDS011;30157;55.512;37.764;2022-08-01T01:22:53;10.13;;;6.15;;
44197;SDS011;30157;55.512;37.764;2022-08-01T01:25:41;9.57;;;7.22;;
44197;SDS011;30157;55.512;37.764;2022-08-01T01:28:20;8.85;;;6.35;;
44197;SDS011;30157;55.512;37.764;2022-08-01T01:30:52;9.48;;;6.60;;
44197;SDS011;30157;55.512;37.764;2022-08-01T01:33:20;10.20;;;6.68;;
44197;SDS011;30157;55.512;37.764;2022-08-01T01:35:49;9.48;;;6.38;;
44197;SDS011;30157;55.512;37.764;2022-08-01T01:38:22;9.27;;;6.05;;
44197;SDS011;30157;55.512;37.764;2022-08-01T01:40:52;9.50;;;5.95;;
44197;SDS011;30157;55.512;37.764;2022-08-01T01:43:18;10.50;;;6.55;;
44197;SDS011;30157;55.512;37.764;2022-08-01T01:45:45;9.35;;;6.22;;
44197;SDS011;30157;55.512;37.764;2022-08-01T01:48:13;7.90;;;5.55;;
44197;SDS011;30157;55.512;37.764;2022-08-01T01:50:42;11.50;;;6.50;;
44197;SDS011;30157;55.512;37.764;2022-08-01T01:53:10;10.65;;;6.55;;
44197;SDS011;30157;55.512;37.764;2022-08-01T01:55:39;12.23;;;6.38;;
44197;SDS011;30157;55.512;37.764;2022-08-01T01:58:07;10.25;;;6.32;;
44197;SDS011;30157;55.512;37.764;2022-08-01T02:00:35;10.45;;;6.70;;
44197;SDS011;30157;55.512;37.764;2022-08-01T02:03:02;10.18;;;6.32;;
44197;SDS011;30157;55.512;37.764;2022-08-01T02:05:32;12.90;;;6.75;;
44197;SDS011;30157;55.512;37.764;2022-08-01T02:08:01;10.75;;;6.40;;
44197;SDS011;30157;55.512;37.764;2022-08-01T02:10:29;10.52;;;6.20;;
44197;SDS011;30157;55.512;37.764;2022-08-01T02:12:57;11.45;;;6.32;;
44197;SDS011;30157;55.512;37.764;2022-08-01T02:15:24;11.20;;;6.50;;
44197;SDS011;30157;55.512;37.764;2022-08-01T02:17:51;11.20;;;6.90;;
44197;SDS011;30157;55.512;37.764;2022-08-01T02:20:18;12.25;;;7.60;;
44197;SDS011;30157;55.512;37.764;2022-08-01T02:22:49;13.68;;;8.15;;
44197;SDS011;30157;55.512;37.764;2022-08-01T02:25:34;13.02;;;8.52;;
44197;SDS011;30157;55.512;37.764;2022-08-01T02:30:36;13.23;;;7.90;;
44197;SDS011;30157;55.512;37.764;2022-08-01T02:33:08;13.82;;;7.03;;
44197;SDS011;30157;55.512;37.764;2022-08-01T02:35:40;12.73;;;7.40;;
44197;SDS011;30157;55.512;37.764;2022-08-01T02:38:09;12.65;;;8.20;;
44197;SDS011;30157;55.512;37.764;2022-08-01T02:40:38;11.43;;;7.10;;
44197;SDS011;30157;55.512;37.764;2022-08-01T02:43:09;11.25;;;7.05;;
44197;SDS011;30157;55.512;37.764;2022-08-01T02:45:39;12.40;;;7.07;;
44197;SDS011;30157;55.512;37.764;2022-08-01T02:48:12;11.02;;;6.57;;
44197;SDS011;30157;55.512;37.764;2022-08-01T02:50:41;10.43;;;6.35;;
44197;SDS011;30157;55.512;37.764;2022-08-01T02:53:09;9.95;;;6.88;;
44197;SDS011;30157;55.512;37.764;2022-08-01T02:55:38;11.38;;;6.72;;
44197;SDS011;30157;55.512;37.764;2022-08-01T02:58:06;12.90;;;7.82;;
44197;SDS011;30157;55.512;37.764;2022-08-01T03:00:34;11.52;;;6.95;;
44197;SDS011;30157;55.512;37.764;2022-08-01T03:03:01;10.07;;;7.20;;
44197;SDS011;30157;55.512;37.764;2022-08-01T03:05:30;10.48;;;6.72;;
44197;SDS011;30157;55.512;37.764;2022-08-01T03:07:57;9.63;;;6.50;;
44197;SDS011;30157;55.512;37.764;2022-08-01T03:10:24;9.88;;;7.00;;
44197;SDS011;30157;55.512;37.764;2022-08-01T03:12:52;11.63;;;7.35;;
44197;SDS011;30157;55.512;37.764;2022-08-01T03:15:22;9.40;;;6.15;;
44197;SDS011;30157;55.512;37.764;2022-08-01T03:17:50;9.30;;;6.40;;
44197;SDS011;30157;55.512;37.764;2022-08-01T03:20:20;8.13;;;6.00;;
44197;SDS011;30157;55.512;37.764;2022-08-01T03:22:50;9.30;;;6.18;;
44197;SDS011;30157;55.512;37.764;2022-08-01T03:25:18;8.65;;;6.28;;
44197;SDS011;30157;55.512;37.764;2022-08-01T03:27:48;9.48;;;6.32;;
44197;SDS011;30157;55.512;37.764;2022-08-01T03:30:19;9.52;;;6.30;;
44197;SDS011;30157;55.512;37.764;2022-08-01T03:32:46;7.60;;;5.28;;
44197;SDS011;30157;55.512;37.764;2022-08-01T03:35:12;7.80;;;5.53;;
44197;SDS011;30157;55.512;37.764;2022-08-01T03:37:38;10.00;;;6.05;;
44197;SDS011;30157;55.512;37.764;2022-08-01T03:40:08;7.70;;;5.40;;
44197;SDS011;30157;55.512;37.764;2022-08-01T03:42:40;6.53;;;3.67;;
44197;SDS011;30157;55.512;37.764;2022-08-01T03:45:13;6.60;;;3.75;;
44197;SDS011;30157;55.512;37.764;2022-08-01T03:50:14;4.88;;;3.60;;
44197;SDS011;30157;55.512;37.764;2022-08-01T03:52:43;5.10;;;3.30;;
44197;SDS011;30157;55.512;37.764;2022-08-01T03:55:11;5.20;;;3.22;;
44197;SDS011;30157;55.512;37.764;2022-08-01T03:57:40;4.38;;;2.95;;
44197;SDS011;30157;55.512;37.764;2022-08-01T04:00:07;9.88;;;3.13;;
44197;SDS011;30157;55.512;37.764;2022-08-01T04:02:40;3.65;;;2.55;;
44197;SDS011;30157;55.512;37.764;2022-08-01T04:05:07;3.42;;;2.58;;
44197;SDS011;30157;55.512;37.764;2022-08-01T04:07:33;4.45;;;2.50;;
44197;SDS011;30157;55.512;37.764;2022-08-01T04:10:02;4.40;;;2.47;;
44197;SDS011;30157;55.512;37.764;2022-08-01T04:12:29;3.75;;;2.40;;
44197;SDS011;30157;55.512;37.764;2022-08-01T04:14:55;3.75;;;2.63;;
44197;SDS011;30157;55.512;37.764;2022-08-01T04:17:21;4.30;;;2.50;;
44197;SDS011;30157;55.512;37.764;2022-08-01T04:19:47;5.40;;;2.25;;
44197;SDS011;30157;55.512;37.764;2022-08-01T04:22:15;3.90;;;2.80;;
44197;SDS011;30157;55.512;37.764;2022-08-01T04:24:42;4.78;;;2.42;;
44197;SDS011;30157;55.512;37.764;2022-08-01T04:27:15;5.40;;;2.90;;
44197;SDS011;30157;55.512;37.764;2022-08-01T04:29:49;6.13;;;2.78;;
44197;SDS011;30157;55.512;37.764;2022-08-01T04:32:20;4.45;;;3.30;;
44197;SDS011;30157;55.512;37.764;2022-08-01T04:34:47;4.45;;;3.00;;
44197;SDS011;30157;55.512;37.764;2022-08-01T04:37:15;4.97;;;3.20;;
44197;SDS011;30157;55.512;37.764;2022-08-01T04:39:42;4.88;;;3.10;;
44197;SDS011;30157;55.512;37.764;2022-08-01T04:42:10;5.40;;;2.63;;
44197;SDS011;30157;55.512;37.764;2022-08-01T04:44:37;4.35;;;3.10;;
44197;SDS011;30157;55.512;37.764;2022-08-01T04:47:03;5.25;;;3.20;;
44197;SDS011;30157;55.512;37.764;2022-08-01T04:49:36;3.95;;;3.22;;
44197;SDS011;30157;55.512;37.764;2022-08-01T04:52:03;4.90;;;3.20;;
44197;SDS011;30157;55.512;37.764;2022-08-01T04:54:32;6.28;;;3.45;;
44197;SDS011;30157;55.512;37.764;2022-08-01T04:57:02;5.82;;;3.42;;
44197;SDS011;30157;55.512;37.764;2022-08-01T04:59:29;6.82;;;3.70;;
44197;SDS011;30157;55.512;37.764;2022-08-01T05:02:11;4.55;;;3.28;;
44197;SDS011;30157;55.512;37.764;2022-08-01T05:04:37;4.72;;;3.35;;
44197;SDS011;30157;55.512;37.764;2022-08-01T05:07:05;3.90;;;3.00;;
44197;SDS011;30157;55.512;37.764;2022-08-01T05:09:31;4.18;;;3.00;;
44197;SDS011;30157;55.512;37.764;2022-08-01T05:11:58;5.38;;;2.90;;
44197;SDS011;30157;55.512;37.764;2022-08-01T05:14:27;4.35;;;2.92;;
44197;SDS011;30157;55.512;37.764;2022-08-01T05:16:53;5.55;;;2.80;;
44197;SDS011;30157;55.512;37.764;2022-08-01T05:19:19;6.10;;;3.08;;
44197;SDS011;30157;55.512;37.764;2022-08-01T05:21:46;3.95;;;2.60;;
44197;SDS011;30157;55.512;37.764;2022-08-01T05:24:12;4.10;;;2.70;;
44197;SDS011;30157;55.512;37.764;2022-08-01T05:26:38;3.80;;;2.70;;
44197;SDS011;30157;55.512;37.764;2022-08-01T05:29:05;4.35;;;2.35;;
44197;SDS011;30157;55.512;37.764;2022-08-01T05:31:30;4.68;;;2.28;;
44197;SDS011;30157;55.512;37.764;2022-08-01T05:34:00;3.25;;;2.30;;
44197;SDS011;30157;55.512;37.764;2022-08-01T05:36:26;4.93;;;2.25;;
44197;SDS011;30157;55.512;37.764;2022-08-01T05:38:52;4.20;;;2.50;;
44197;SDS011;30157;55.512;37.764;2022-08-01T05:41:18;3.78;;;2.22;;
44197;SDS011;30157;55.512;37.764;2022-08-01T05:43:43;4.05;;;2.15;;
44197;SDS011;30157;55.512;37.764;2022-08-01T05:46:09;3.15;;;1.90;;
44197;SDS011;30157;55.512;37.764;2022-08-01T05:48:35;3.30;;;2.30;;
44197;SDS011;30157;55.512;37.764;2022-08-01T05:51:00;2.45;;;2.10;;
44197;SDS011;30157;55.512;37.764;2022-08-01T05:53:27;5.55;;;2.28;;
44197;SDS011;30157;55.512;37.764;2022-08-01T05:55:52;3.70;;;2.20;;
44197;SDS011;30157;55.512;37.764;2022-08-01T05:58:18;2.97;;;1.90;;
44197;SDS011;30157;55.512;37.764;2022-08-01T06:00:44;4.05;;;2.15;;
44197;SDS011;30157;55.512;37.764;2022-08-01T06:03:10;2.65;;;2.00;;
44197;SDS011;30157;55.512;37.764;2022-08-01T06:05:36;2.35;;;2.00;;
44197;SDS011;30157;55.512;37.764;2022-08-01T06:08:03;3.17;;;2.17;;
44197;SDS011;30157;55.512;37.764;2022-08-01T06:10:29;4.07;;;2.03;;
44197;SDS011;30157;55.512;37.764;2022-08-01T06:12:55;3.75;;;2.20;;
44197;SDS011;30157;55.512;37.764;2022-08-01T06:15:21;2.40;;;2.03;;
44197;SDS011;30157;55.512;37.764;2022-08-01T06:17:46;4.10;;;2.50;;
44197;SDS011;30157;55.512;37.764;2022-08-01T06:20:12;4.18;;;1.92;;
44197;SDS011;30157;55.512;37.764;2022-08-01T06:22:38;2.90;;;2.00;;
44197;SDS011;30157;55.512;37.764;2022-08-01T06:25:04;2.97;;;2.10;;
44197;SDS011;30157;55.512;37.764;2022-08-01T06:27:30;5.30;;;2.63;;
44197;SDS011;30157;55.512;37.764;2022-08-01T06:29:58;4.43;;;2.22;;
44197;SDS011;30157;55.512;37.764;2022-08-01T06:32:24;4.30;;;2.70;;
44197;SDS011;30157;55.512;37.764;2022-08-01T06:34:51;4.53;;;2.70;;
44197;SDS011;30157;55.512;37.764;2022-08-01T06:37:17;5.75;;;2.85;;
44197;SDS011;30157;55.512;37.764;2022-08-01T06:39:43;6.03;;;3.03;;
44197;SDS011;30157;55.512;37.764;2022-08-01T06:42:09;7.10;;;3.50;;
44197;SDS011;30157;55.512;37.764;2022-08-01T06:44:35;6.00;;;2.80;;
44197;SDS011;30157;55.512;37.764;2022-08-01T06:47:01;4.57;;;2.80;;
44197;SDS011;30157;55.512;37.764;2022-08-01T06:49:27;5.80;;;2.83;;
44197;SDS011;30157;55.512;37.764;2022-08-01T06:51:53;3.50;;;2.47;;
44197;SDS011;30157;55.512;37.764;2022-08-01T06:54:18;3.92;;;2.30;;
44197;SDS011;30157;55.512;37.764;2022-08-01T06:56:44;3.83;;;2.42;;
44197;SDS011;30157;55.512;37.764;2022-08-01T06:59:10;4.05;;;2.55;;
44197;SDS011;30157;55.512;37.764;2022-08-01T07:01:35;2.97;;;2.35;;
44197;SDS011;30157;55.512;37.764;2022-08-01T07:04:02;2.95;;;2.30;;
44197;SDS011;30157;55.512;37.764;2022-08-01T07:06:28;3.13;;;2.47;;
44197;SDS011;30157;55.512;37.764;2022-08-01T07:08:54;4.93;;;2.50;;
44197;SDS011;30157;55.512;37.764;2022-08-01T07:11:20;3.33;;;2.40;;
44197;SDS011;30157;55.512;37.764;2022-08-01T07:13:47;3.70;;;2.70;;
44197;SDS011;30157;55.512;37.764;2022-08-01T07:16:14;5.93;;;2.50;;
44197;SDS011;30157;55.512;37.764;2022-08-01T07:18:40;3.67;;;2.60;;
44197;SDS011;30157;55.512;37.764;2022-08-01T07:21:06;4.30;;;2.70;;
44197;SDS011;30157;55.512;37.764;2022-08-01T07:23:33;3.85;;;2.80;;
44197;SDS011;30157;55.512;37.764;2022-08-01T07:26:07;3.45;;;2.60;;
44197;SDS011;30157;55.512;37.764;2022-08-01T07:28:32;3.63;;;2.17;;
44197;SDS011;30157;55.512;37.764;2022-08-01T07:30:58;3.85;;;2.28;;
44197;SDS011;30157;55.512;37.764;2022-08-01T07:33:24;3.13;;;2.20;;
44197;SDS011;30157;55.512;37.764;2022-08-01T07:35:50;3.40;;;2.30;;
44197;SDS011;30157;55.512;37.764;2022-08-01T07:38:16;2.95;;;2.00;;
44197;SDS011;30157;55.512;37.764;2022-08-01T07:40:42;5.50;;;2.15;;
44197;SDS011;30157;55.512;37.764;2022-08-01T07:43:09;3.47;;;2.08;;
44197;SDS011;30157;55.512;37.764;2022-08-01T07:45:35;3.05;;;1.90;;
44197;SDS011;30157;55.512;37.764;2022-08-01T07:48:04;4.55;;;2.00;;
44197;SDS011;30157;55.512;37.764;2022-08-01T07:50:31;2.40;;;1.70;;
44197;SDS011;30157;55.512;37.764;2022-08-01T07:52:57;1.90;;;1.70;;
44197;SDS011;30157;55.512;37.764;2022-08-01T07:55:23;1.90;;;1.60;;
44197;SDS011;30157;55.512;37.764;2022-08-01T07:57:49;5.18;;;2.20;;
44197;SDS011;30157;55.512;37.764;2022-08-01T08:00:15;3.42;;;1.92;;
44197;SDS011;30157;55.512;37.764;2022-08-01T08:02:43;3.95;;;2.33;;
44197;SDS011;30157;55.512;37.764;2022-08-01T08:05:10;2.67;;;1.67;;
44197;SDS011;30157;55.512;37.764;2022-08-01T08:07:36;2.78;;;1.67;;
44197;SDS011;30157;55.512;37.764;2022-08-01T08:10:04;2.20;;;1.55;;
44197;SDS011;30157;55.512;37.764;2022-08-01T08:12:33;4.10;;;1.73;;
44197;SDS011;30157;55.512;37.764;2022-08-01T08:14:59;4.32;;;1.58;;
44197;SDS011;30157;55.512;37.764;2022-08-01T08:17:26;2.08;;;1.70;;
44197;SDS011;30157;55.512;37.764;2022-08-01T08:19:52;1.73;;;1.42;;
44197;SDS011;30157;55.512;37.764;2022-08-01T08:22:18;2.33;;;2.00;;
44197;SDS011;30157;55.512;37.764;2022-08-01T08:24:44;3.65;;;1.60;;
44197;SDS011;30157;55.512;37.764;2022-08-01T08:27:10;1.48;;;1.23;;
44197;SDS011;30157;55.512;37.764;2022-08-01T08:29:36;3.20;;;1.70;;
44197;SDS011;30157;55.512;37.764;2022-08-01T08:32:02;2.90;;;1.30;;
44197;SDS011;30157;55.512;37.764;2022-08-01T08:34:28;2.08;;;1.50;;
44197;SDS011;30157;55.512;37.764;2022-08-01T08:36:55;1.65;;;1.40;;
44197;SDS011;30157;55.512;37.764;2022-08-01T08:39:22;2.72;;;1.70;;
44197;SDS011;30157;55.512;37.764;2022-08-01T08:41:48;3.75;;;1.75;;
44197;SDS011;30157;55.512;37.764;2022-08-01T08:44:14;2.88;;;1.70;;
44197;SDS011;30157;55.512;37.764;2022-08-01T08:46:45;4.15;;;1.95;;
44197;SDS011;30157;55.512;37.764;2022-08-01T08:49:15;2.65;;;1.70;;
44197;SDS011;30157;55.512;37.764;2022-08-01T08:51:44;2.45;;;1.80;;
44197;SDS011;30157;55.512;37.764;2022-08-01T08:54:13;3.47;;;1.80;;
44197;SDS011;30157;55.512;37.764;2022-08-01T08:56:40;2.80;;;1.80;;
44197;SDS011;30157;55.512;37.764;2022-08-01T08:59:07;2.92;;;1.50;;
44197;SDS011;30157;55.512;37.764;2022-08-01T09:01:33;2.25;;;1.88;;
44197;SDS011;30157;55.512;37.764;2022-08-01T09:04:01;1.90;;;1.40;;
44197;SDS011;30157;55.512;37.764;2022-08-01T09:06:28;3.90;;;1.75;;
44197;SDS011;30157;55.512;37.764;2022-08-01T09:08:55;1.83;;;1.50;;
44197;SDS011;30157;55.512;37.764;2022-08-01T09:11:22;2.40;;;1.98;;
44197;SDS011;30157;55.512;37.764;2022-08-01T09:16:34;4.90;;;1.83;;
44197;SDS011;30157;55.512;37.764;2022-08-01T09:19:08;3.03;;;1.63;;
44197;SDS011;30157;55.512;37.764;2022-08-01T09:21:37;3.33;;;1.90;;
44197;SDS011;30157;55.512;37.764;2022-08-01T09:24:12;1.92;;;1.52;;
44197;SDS011;30157;55.512;37.764;2022-08-01T09:26:40;3.45;;;1.67;;
44197;SDS011;30157;55.512;37.764;2022-08-01T09:29:06;2.20;;;1.63;;
44197;SDS011;30157;55.512;37.764;2022-08-01T09:31:42;2.22;;;1.60;;
44197;SDS011;30157;55.512;37.764;2022-08-01T09:34:09;2.90;;;1.63;;
44197;SDS011;30157;55.512;37.764;2022-08-01T09:39:23;2.13;;;1.50;;
44197;SDS011;30157;55.512;37.764;2022-08-01T09:41:54;3.45;;;1.60;;
44197;SDS011;30157;55.512;37.764;2022-08-01T09:44:39;2.10;;;1.60;;
44197;SDS011;30157;55.512;37.764;2022-08-01T09:47:06;2.13;;;1.40;;
44197;SDS011;30157;55.512;37.764;2022-08-01T09:49:33;2.03;;;1.50;;
44197;SDS011;30157;55.512;37.764;2022-08-01T09:54:42;2.50;;;1.60;;
44197;SDS011;30157;55.512;37.764;2022-08-01T09:57:16;1.98;;;1.50;;
44197;SDS011;30157;55.512;37.764;2022-08-01T09:59:44;2.40;;;1.48;;
44197;SDS011;30157;55.512;37.764;2022-08-01T10:02:11;2.70;;;1.50;;
44197;SDS011;30157;55.512;37.764;2022-08-01T10:04:47;3.33;;;1.70;;
44197;SDS011;30157;55.512;37.764;2022-08-01T10:07:14;2.95;;;1.48;;
44197;SDS011;30157;55.512;37.764;2022-08-01T10:09:41;1.83;;;1.48;;
44197;SDS011;30157;55.512;37.764;2022-08-01T10:12:08;2.10;;;1.70;;
44197;SDS011;30157;55.512;37.764;2022-08-01T10:14:36;2.05;;;1.75;;
44197;SDS011;30157;55.512;37.764;2022-08-01T10:17:04;1.85;;;1.50;;
44197;SDS011;30157;55.512;37.764;2022-08-01T10:19:33;2.75;;;1.30;;
44197;SDS011;30157;55.512;37.764;2022-08-01T10:22:00;1.98;;;1.50;;
44197;SDS011;30157;55.512;37.764;2022-08-01T10:24:28;1.88;;;1.50;;
44197;SDS011;30157;55.512;37.764;2022-08-01T10:26:56;1.98;;;1.70;;
44197;SDS011;30157;55.512;37.764;2022-08-01T10:29:28;1.98;;;1.63;;
44197;SDS011;30157;55.512;37.764;2022-08-01T10:31:58;2.53;;;1.60;;
44197;SDS011;30157;55.512;37.764;2022-08-01T10:34:24;1.63;;;1.45;;
44197;SDS011;30157;55.512;37.764;2022-08-01T10:36:52;2.30;;;1.60;;
44197;SDS011;30157;55.512;37.764;2022-08-01T10:39:18;2.55;;;1.90;;
44197;SDS011;30157;55.512;37.764;2022-08-01T10:41:44;1.92;;;1.65;;
44197;SDS011;30157;55.512;37.764;2022-08-01T10:44:11;1.50;;;1.25;;
44197;SDS011;30157;55.512;37.764;2022-08-01T10:46:37;2.20;;;1.60;;
44197;SDS011;30157;55.512;37.764;2022-08-01T10:49:06;2.17;;;1.50;;
44197;SDS011;30157;55.512;37.764;2022-08-01T10:51:39;2.30;;;1.60;;
44197;SDS011;30157;55.512;37.764;2022-08-01T10:54:06;3.63;;;1.60;;
44197;SDS011;30157;55.512;37.764;2022-08-01T10:56:42;1.95;;;1.63;;
44197;SDS011;30157;55.512;37.764;2022-08-01T10:59:10;4.10;;;1.80;;
44197;SDS011;30157;55.512;37.764;2022-08-01T11:13:05;1.70;;;1.40;;
44197;SDS011;30157;55.512;37.764;2022-08-01T11:15:39;2.95;;;1.70;;
44197;SDS011;30157;55.512;37.764;2022-08-01T11:21:00;2.75;;;1.60;;
44197;SDS011;30157;55.512;37.764;2022-08-01T11:23:28;1.70;;;1.50;;
44197;SDS011;30157;55.512;37.764;2022-08-01T11:28:28;15.02;;;9.45;;
44197;SDS011;30157;55.512;37.764;2022-08-01T11:41:32;2.25;;;1.77;;
44197;SDS011;30157;55.512;37.764;2022-08-01T11:44:03;1.90;;;1.70;;
44197;SDS011;30157;55.512;37.764;2022-08-01T11:46:45;3.03;;;2.00;;
44197;SDS011;30157;55.512;37.764;2022-08-01T11:57:19;3.92;;;2.70;;
44197;SDS011;30157;55.512;37.764;2022-08-01T11:59:55;3.28;;;2.47;;
44197;SDS011;30157;55.512;37.764;2022-08-01T12:04:50;2.67;;;1.98;;
44197;SDS011;30157;55.512;37.764;2022-08-01T12:07:18;2.97;;;2.17;;
44197;SDS011;30157;55.512;37.764;2022-08-01T12:09:47;2.15;;;1.80;;
44197;SDS011;30157;55.512;37.764;2022-08-01T12:12:17;1.83;;;1.42;;
44197;SDS011;30157;55.512;37.764;2022-08-01T12:14:44;2.45;;;1.60;;
44197;SDS011;30157;55.512;37.764;2022-08-01T12:17:11;2.50;;;1.90;;
44197;SDS011;30157;55.512;37.764;2022-08-01T12:19:38;2.03;;;1.60;;
44197;SDS011;30157;55.512;37.764;2022-08-01T12:22:06;2.60;;;1.60;;
44197;SDS011;30157;55.512;37.764;2022-08-01T12:24:37;1.95;;;1.65;;
44197;SDS011;30157;55.512;37.764;2022-08-01T12:27:07;1.98;;;1.75;;
44197;SDS011;30157;55.512;37.764;2022-08-01T12:29:39;1.75;;;1.50;;
44197;SDS011;30157;55.512;37.764;2022-08-01T12:32:22;2.30;;;1.80;;
44197;SDS011;30157;55.512;37.764;2022-08-01T12:34:49;1.80;;;1.50;;
44197;SDS011;30157;55.512;37.764;2022-08-01T12:37:16;2.70;;;1.58;;
44197;SDS011;30157;55.512;37.764;2022-08-01T12:39:43;2.60;;;1.80;;
44197;SDS011;30157;55.512;37.764;2022-08-01T12:42:09;1.90;;;1.63;;
44197;SDS011;30157;55.512;37.764;2022-08-01T12:44:36;3.00;;;1.98;;
44197;SDS011;30157;55.512;37.764;2022-08-01T12:47:03;2.20;;;1.65;;
44197;SDS011;30157;55.512;37.764;2022-08-01T12:49:35;2.08;;;1.60;;
44197;SDS011;30157;55.512;37.764;2022-08-01T12:52:02;3.30;;;1.95;;
44197;SDS011;30157;55.512;37.764;2022-08-01T12:54:28;2.17;;;1.80;;
44197;SDS011;30157;55.512;37.764;2022-08-01T12:56:54;2.90;;;1.70;;
44197;SDS011;30157;55.512;37.764;2022-08-01T12:59:27;1.98;;;1.67;;
44197;SDS011;30157;55.512;37.764;2022-08-01T13:01:54;3.85;;;2.10;;
44197;SDS011;30157;55.512;37.764;2022-08-01T13:04:24;3.08;;;1.90;;
44197;SDS011;30157;55.512;37.764;2022-08-01T13:06:52;2.75;;;2.00;;
44197;SDS011;30157;55.512;37.764;2022-08-01T13:09:19;3.92;;;2.00;;
44197;SDS011;30157;55.512;37.764;2022-08-01T13:11:45;3.17;;;2.03;;
44197;SDS011;30157;55.512;37.764;2022-08-01T13:14:26;2.80;;;2.10;;
44197;SDS011;30157;55.512;37.764;2022-08-01T13:16:53;2.42;;;1.67;;
44197;SDS011;30157;55.512;37.764;2022-08-01T13:19:19;2.90;;;1.65;;
44197;SDS011;30157;55.512;37.764;2022-08-01T13:21:57;2.35;;;1.73;;
44197;SDS011;30157;55.512;37.764;2022-08-01T13:24:27;2.08;;;1.33;;
44197;SDS011;30157;55.512;37.764;2022-08-01T13:26:58;1.85;;;1.48;;
44197;SDS011;30157;55.512;37.764;2022-08-01T13:31:58;2.10;;;1.60;;
44197;SDS011;30157;55.512;37.764;2022-08-01T13:34:34;3.50;;;2.00;;
44197;SDS011;30157;55.512;37.764;2022-08-01T13:37:00;2.35;;;1.75;;
44197;SDS011;30157;55.512;37.764;2022-08-01T13:39:28;2.90;;;1.98;;
44197;SDS011;30157;55.512;37.764;2022-08-01T13:42:08;5.25;;;2.50;;
44197;SDS011;30157;55.512;37.764;2022-08-01T13:44:34;4.15;;;2.40;;
44197;SDS011;30157;55.512;37.764;2022-08-01T13:47:00;3.15;;;1.83;;
44197;SDS011;30157;55.512;37.764;2022-08-01T13:49:28;3.83;;;1.80;;
44197;SDS011;30157;55.512;37.764;2022-08-01T13:51:53;2.85;;;1.77;;
44197;SDS011;30157;55.512;37.764;2022-08-01T13:54:19;2.65;;;1.83;;
44197;SDS011;30157;55.512;37.764;2022-08-01T13:56:45;2.72;;;1.90;;
44197;SDS011;30157;55.512;37.764;2022-08-01T13:59:11;5.30;;;3.00;;
44197;SDS011;30157;55.512;37.764;2022-08-01T14:01:38;2.25;;;1.60;;
44197;SDS011;30157;55.512;37.764;2022-08-01T14:04:03;3.45;;;1.77;;
44197;SDS011;30157;55.512;37.764;2022-08-01T14:06:31;3.35;;;1.73;;
44197;SDS011;30157;55.512;37.764;2022-08-01T14:08:57;2.42;;;1.60;;
44197;SDS011;30157;55.512;37.764;2022-08-01T14:11:23;1.80;;;1.55;;
44197;SDS011;30157;55.512;37.764;2022-08-01T14:13:52;2.55;;;1.60;;
44197;SDS011;30157;55.512;37.764;2022-08-01T14:16:20;1.92;;;1.70;;
44197;SDS011;30157;55.512;37.764;2022-08-01T14:18:46;3.92;;;1.55;;
44197;SDS011;30157;55.512;37.764;2022-08-01T14:21:12;2.67;;;2.00;;
44197;SDS011;30157;55.512;37.764;2022-08-01T14:23:40;2.13;;;1.50;;
44197;SDS011;30157;55.512;37.764;2022-08-01T14:26:08;2.58;;;1.75;;
44197;SDS011;30157;55.512;37.764;2022-08-01T14:28:35;2.75;;;1.77;;
44197;SDS011;30157;55.512;37.764;2022-08-01T14:31:01;1.95;;;1.70;;
44197;SDS011;30157;55.512;37.764;2022-08-01T14:33:27;2.70;;;1.40;;
44197;SDS011;30157;55.512;37.764;2022-08-01T14:35:54;3.17;;;1.73;;
44197;SDS011;30157;55.512;37.764;2022-08-01T14:38:20;1.70;;;1.58;;
44197;SDS011;30157;55.512;37.764;2022-08-01T14:40:46;2.03;;;1.50;;
44197;SDS011;30157;55.512;37.764;2022-08-01T14:43:19;2.03;;;1.70;;
44197;SDS011;30157;55.512;37.764;2022-08-01T14:45:45;2.72;;;1.70;;
44197;SDS011;30157;55.512;37.764;2022-08-01T14:48:15;2.35;;;1.80;;
44197;SDS011;30157;55.512;37.764;2022-08-01T14:50:42;2.75;;;1.80;;
44197;SDS011;30157;55.512;37.764;2022-08-01T14:53:08;1.90;;;1.60;;
44197;SDS011;30157;55.512;37.764;2022-08-01T14:55:33;3.38;;;2.00;;
44197;SDS011;30157;55.512;37.764;2022-08-01T14:57:59;2.13;;;1.77;;
44197;SDS011;30157;55.512;37.764;2022-08-01T15:00:25;4.15;;;1.60;;
44197;SDS011;30157;55.512;37.764;2022-08-01T15:02:51;2.05;;;1.70;;
44197;SDS011;30157;55.512;37.764;2022-08-01T15:05:16;2.20;;;1.83;;
44197;SDS011;30157;55.512;37.764;2022-08-01T15:07:42;2.42;;;1.92;;
44197;SDS011;30157;55.512;37.764;2022-08-01T15:10:13;4.45;;;2.15;;
44197;SDS011;30157;55.512;37.764;2022-08-01T15:12:39;3.78;;;1.90;;
44197;SDS011;30157;55.512;37.764;2022-08-01T15:15:05;3.55;;;2.08;;
44197;SDS011;30157;55.512;37.764;2022-08-01T15:17:31;2.72;;;1.95;;
44197;SDS011;30157;55.512;37.764;2022-08-01T15:19:58;3.50;;;1.98;;
44197;SDS011;30157;55.512;37.764;2022-08-01T15:22:25;4.03;;;2.33;;
44197;SDS011;30157;55.512;37.764;2022-08-01T15:24:52;2.97;;;2.13;;
44197;SDS011;30157;55.512;37.764;2022-08-01T15:27:19;2.55;;;2.00;;
44197;SDS011;30157;55.512;37.764;2022-08-01T15:29:46;3.80;;;1.90;;
44197;SDS011;30157;55.512;37.764;2022-08-01T15:32:13;3.13;;;2.35;;
44197;SDS011;30157;55.512;37.764;2022-08-01T15:34:39;3.25;;;1.90;;
44197;SDS011;30157;55.512;37.764;2022-08-01T15:37:06;3.63;;;2.00;;
44197;SDS011;30157;55.512;37.764;2022-08-01T15:39:32;3.38;;;2.03;;